createdAt,value
2018-12-29T00:00:44.987Z,5.38
2018-12-29T00:01:44.982Z,5.53
2018-12-29T00:02:44.971Z,5.68
2018-12-29T00:03:44.962Z,5.91
2018-12-29T00:04:44.973Z,5.92
2018-12-29T00:05:44.972Z,5.75
2018-12-29T00:06:44.934Z,5.56
2018-12-29T00:07:44.914Z,5.35
2018-12-29T00:08:44.907Z,5.05
2018-12-29T00:09:44.916Z,4.76
2018-12-29T00:10:44.880Z,4.44
2018-12-29T00:11:44.925Z,4.44
2018-12-29T00:12:44.865Z,5.13
2018-12-29T00:13:44.848Z,4.80
2018-12-29T00:14:44.865Z,4.64
2018-12-29T00:15:44.828Z,4.54
2018-12-29T00:16:44.814Z,4.47
2018-12-29T00:17:44.842Z,4.47
2018-12-29T00:18:44.822Z,4.46
2018-12-29T00:19:44.788Z,4.21
2018-12-29T00:20:44.796Z,3.78
2018-12-29T00:21:44.757Z,3.42
2018-12-29T00:22:44.742Z,3.00
2018-12-29T00:23:44.741Z,2.92
2018-12-29T00:24:44.775Z,2.82
2018-12-29T00:25:44.741Z,2.84
2018-12-29T00:26:44.705Z,2.77
2018-12-29T00:27:44.694Z,2.74
2018-12-29T00:28:44.686Z,2.98
2018-12-29T00:29:44.668Z,3.03
2018-12-29T00:30:44.724Z,3.36
2018-12-29T00:31:44.651Z,3.80
2018-12-29T00:32:44.645Z,3.61
2018-12-29T00:33:44.632Z,3.52
2018-12-29T00:34:44.615Z,3.96
2018-12-29T00:35:44.630Z,4.44
2018-12-29T00:36:44.628Z,4.62
2018-12-29T00:37:44.584Z,4.79
2018-12-29T00:38:44.571Z,4.92
2018-12-29T00:39:44.589Z,4.79
2018-12-29T00:40:44.551Z,4.37
2018-12-29T00:41:44.567Z,4.33
2018-12-29T00:42:44.562Z,4.76
2018-12-29T00:43:44.521Z,5.10
2018-12-29T00:44:44.517Z,5.38
2018-12-29T00:45:45.524Z,4.94
2018-12-29T00:46:44.509Z,4.46
2018-12-29T00:47:44.480Z,3.97
2018-12-29T00:48:44.471Z,4.18
2018-12-29T00:49:44.480Z,4.51
2018-12-29T00:50:44.446Z,4.54
2018-12-29T00:51:44.455Z,4.55
2018-12-29T00:52:44.423Z,4.76
2018-12-29T00:53:44.407Z,4.94
2018-12-29T00:54:44.431Z,5.05
2018-12-29T00:55:44.393Z,5.41
2018-12-29T00:56:44.410Z,5.17
2018-12-29T00:57:44.389Z,4.67
2018-12-29T00:58:44.361Z,4.42
2018-12-29T00:59:44.344Z,4.64
2018-12-29T01:00:44.333Z,5.09
2018-12-29T01:01:44.324Z,4.83
2018-12-29T01:02:44.364Z,4.24
2018-12-29T01:03:44.303Z,4.08
2018-12-29T01:04:44.301Z,3.57
2018-12-29T01:05:44.279Z,3.31
2018-12-29T01:06:44.262Z,3.57
2018-12-29T01:07:44.280Z,3.96
2018-12-29T01:08:44.244Z,3.50
2018-12-29T01:09:44.265Z,3.40
2018-12-29T01:10:44.228Z,4.01
2018-12-29T01:11:44.215Z,3.80
2018-12-29T01:12:44.222Z,4.19
2018-12-29T01:13:44.198Z,4.34
2018-12-29T01:14:44.203Z,3.97
2018-12-29T01:15:44.192Z,3.86
2018-12-29T01:16:44.157Z,3.40
2018-12-29T01:17:44.150Z,3.40
2018-12-29T01:18:44.164Z,3.72
2018-12-29T01:19:44.130Z,4.14
2018-12-29T01:20:44.119Z,4.18
2018-12-29T01:21:44.161Z,3.89
2018-12-29T01:22:44.093Z,4.00
2018-12-29T01:23:44.106Z,3.75
2018-12-29T01:24:44.072Z,3.97
2018-12-29T01:25:44.062Z,4.76
2018-12-29T01:26:44.054Z,4.96
2018-12-29T01:27:44.097Z,5.14
2018-12-29T01:28:44.054Z,5.28
2018-12-29T01:29:44.019Z,5.37
2018-12-29T01:30:44.011Z,5.28
2018-12-29T01:31:43.999Z,5.30
2018-12-29T01:32:43.985Z,5.14
2018-12-29T01:33:44.043Z,5.10
2018-12-29T01:34:43.968Z,5.12
2018-12-29T01:35:43.958Z,4.86
2018-12-29T01:36:43.949Z,4.86
2018-12-29T01:37:43.932Z,5.30
2018-12-29T01:38:43.942Z,5.56
2018-12-29T01:39:43.945Z,5.22
2018-12-29T01:40:43.920Z,5.14
2018-12-29T01:41:43.887Z,5.43
2018-12-29T01:42:43.882Z,4.83
2018-12-29T01:43:43.878Z,4.64
2018-12-29T01:44:43.893Z,4.24
2018-12-29T01:45:43.843Z,3.94
2018-12-29T01:46:43.856Z,3.67
2018-12-29T01:47:43.930Z,3.96
2018-12-29T01:48:43.813Z,3.61
2018-12-29T01:49:43.823Z,3.47
2018-12-29T01:50:43.790Z,3.21
2018-12-29T01:51:43.782Z,3.39
2018-12-29T01:52:43.789Z,3.61
2018-12-29T01:53:43.761Z,3.58
2018-12-29T01:54:43.778Z,3.90
2018-12-29T01:55:43.745Z,4.39
2018-12-29T01:56:43.726Z,4.15
2018-12-29T01:57:43.712Z,3.75
2018-12-29T01:58:43.698Z,3.43
2018-12-29T01:59:43.882Z,3.42
2018-12-29T02:00:43.684Z,3.25
2018-12-29T02:01:43.666Z,3.13
2018-12-29T02:02:43.660Z,3.76
2018-12-29T02:03:43.650Z,4.39
2018-12-29T02:04:43.637Z,4.99
2018-12-29T02:05:43.674Z,5.07
2018-12-29T02:06:43.620Z,4.84
2018-12-29T02:07:43.605Z,4.69
2018-12-29T02:08:43.598Z,4.65
2018-12-29T02:09:43.587Z,4.67
2018-12-29T02:10:43.591Z,4.46
2018-12-29T02:11:43.561Z,4.73
2018-12-29T02:12:43.576Z,4.95
2018-12-29T02:13:43.540Z,5.05
2018-12-29T02:14:43.531Z,4.65
2018-12-29T02:15:43.544Z,4.14
2018-12-29T02:16:43.504Z,3.57
2018-12-29T02:17:43.499Z,3.16
2018-12-29T02:18:43.518Z,3.06
2018-12-29T02:19:43.474Z,2.97
2018-12-29T02:20:43.485Z,2.87
2018-12-29T02:21:43.478Z,2.87
2018-12-29T02:22:43.439Z,2.91
2018-12-29T02:23:43.432Z,2.87
2018-12-29T02:24:43.452Z,3.21
2018-12-29T02:25:43.412Z,3.57
2018-12-29T02:26:43.421Z,3.61
2018-12-29T02:27:43.387Z,3.43
2018-12-29T02:28:43.387Z,3.24
2018-12-29T02:29:43.365Z,3.20
2018-12-29T02:30:43.353Z,3.64
2018-12-29T02:31:43.399Z,3.96
2018-12-29T02:32:43.328Z,4.04
2018-12-29T02:33:43.318Z,3.97
2018-12-29T02:34:43.310Z,3.60
2018-12-29T02:35:43.300Z,3.20
2018-12-29T02:36:43.311Z,3.18
2018-12-29T02:37:43.335Z,3.23
2018-12-29T02:38:43.280Z,3.60
2018-12-29T02:39:43.264Z,3.92
2018-12-29T02:40:43.251Z,4.15
2018-12-29T02:41:43.234Z,4.06
2018-12-29T02:42:43.255Z,3.71
2018-12-29T02:43:43.249Z,3.42
2018-12-29T02:44:43.202Z,3.53
2018-12-29T02:45:43.201Z,3.90
2018-12-29T02:46:43.184Z,4.14
2018-12-29T02:47:43.197Z,4.34
2018-12-29T02:48:43.161Z,3.94
2018-12-29T02:49:43.193Z,3.67
2018-12-29T02:50:43.139Z,3.40
2018-12-29T02:51:43.124Z,3.92
2018-12-29T02:52:43.136Z,4.22
2018-12-29T02:53:43.146Z,3.97
2018-12-29T02:54:43.089Z,3.57
2018-12-29T02:55:43.078Z,3.49
2018-12-29T02:56:43.087Z,3.72
2018-12-29T02:57:43.083Z,3.67
2018-12-29T02:58:43.054Z,3.54
2018-12-29T02:59:43.034Z,3.31
2018-12-29T03:00:43.026Z,3.33
2018-12-29T03:01:43.011Z,3.43
2018-12-29T03:02:43.084Z,3.46
2018-12-29T03:03:43.002Z,3.31
2018-12-29T03:04:42.976Z,3.28
2018-12-29T03:05:42.969Z,3.07
2018-12-29T03:06:42.964Z,3.20
2018-12-29T03:07:42.953Z,3.72
2018-12-29T03:08:43.008Z,4.33
2018-12-29T03:09:42.947Z,4.50
2018-12-29T03:10:42.919Z,4.72
2018-12-29T03:11:42.906Z,4.51
2018-12-29T03:12:42.896Z,4.28
2018-12-29T03:13:42.905Z,4.61
2018-12-29T03:14:42.870Z,4.99
2018-12-29T03:15:42.915Z,4.95
2018-12-29T03:16:42.849Z,4.86
2018-12-29T03:17:42.839Z,4.77
2018-12-29T03:18:42.852Z,4.79
2018-12-29T03:19:42.815Z,4.91
2018-12-29T03:20:42.810Z,4.89
2018-12-29T03:21:42.800Z,4.77
2018-12-29T03:22:42.784Z,4.65
2018-12-29T03:23:42.821Z,4.61
2018-12-29T03:24:42.764Z,4.51
2018-12-29T03:25:42.748Z,4.22
2018-12-29T03:26:42.738Z,4.33
2018-12-29T03:27:42.750Z,4.43
2018-12-29T03:28:42.717Z,4.58
2018-12-29T03:29:42.754Z,4.94
2018-12-29T03:30:42.692Z,4.94
2018-12-29T03:31:42.683Z,4.94
2018-12-29T03:32:42.674Z,4.89
2018-12-29T03:33:42.657Z,5.12
2018-12-29T03:34:42.672Z,5.12
2018-12-29T03:35:42.662Z,4.98
2018-12-29T03:36:42.627Z,5.12
2018-12-29T03:37:42.620Z,5.52
2018-12-29T03:38:42.602Z,5.52
2018-12-29T03:39:42.626Z,5.27
2018-12-29T03:40:42.584Z,5.09
2018-12-29T03:41:42.567Z,5.30
2018-12-29T03:42:42.583Z,5.55
2018-12-29T03:43:42.549Z,5.52
2018-12-29T03:44:42.553Z,5.50
2018-12-29T03:45:49.103Z,5.48
2018-12-29T03:46:43.509Z,5.40
2018-12-29T03:47:42.502Z,5.41
2018-12-29T03:48:42.525Z,5.40
2018-12-29T03:49:42.502Z,5.38
2018-12-29T03:50:42.476Z,5.35
2018-12-29T03:51:42.458Z,5.30
2018-12-29T03:52:42.459Z,5.22
2018-12-29T03:53:42.433Z,5.13
2018-12-29T03:54:42.447Z,5.28
2018-12-29T03:55:42.453Z,5.45
2018-12-29T03:56:42.404Z,5.59
2018-12-29T03:57:42.409Z,5.55
2018-12-29T03:58:42.383Z,5.41
2018-12-29T03:59:42.363Z,5.25
2018-12-29T04:00:42.387Z,5.56
2018-12-29T04:01:42.390Z,5.73
2018-12-29T04:02:42.343Z,5.95
2018-12-29T04:03:42.321Z,6.04
2018-12-29T04:04:42.321Z,5.81
2018-12-29T04:05:42.324Z,5.60
2018-12-29T04:06:42.294Z,5.55
2018-12-29T04:07:42.287Z,5.89
2018-12-29T04:08:42.292Z,5.91
2018-12-29T04:09:42.255Z,5.60
2018-12-29T04:10:42.267Z,5.25
2018-12-29T04:11:42.234Z,5.13
2018-12-29T04:12:42.216Z,5.43
2018-12-29T04:13:42.211Z,5.48
2018-12-29T04:14:42.233Z,5.49
2018-12-29T04:15:42.208Z,5.40
2018-12-29T04:16:42.169Z,5.50
2018-12-29T04:17:42.178Z,5.50
2018-12-29T04:18:42.157Z,5.48
2018-12-29T04:19:42.144Z,5.53
2018-12-29T04:20:42.181Z,5.71
2018-12-29T04:21:42.121Z,5.83
2018-12-29T04:22:42.107Z,5.60
2018-12-29T04:23:42.122Z,5.48
2018-12-29T04:24:42.085Z,5.57
2018-12-29T04:25:42.077Z,5.71
2018-12-29T04:26:42.118Z,5.50
2018-12-29T04:27:42.055Z,5.40
2018-12-29T04:28:42.043Z,5.48
2018-12-29T04:29:42.023Z,5.52
2018-12-29T04:30:42.016Z,5.48
2018-12-29T04:31:42.031Z,5.52
2018-12-29T04:32:42.050Z,5.63
2018-12-29T04:33:42.008Z,5.56
2018-12-29T04:34:41.973Z,5.49
2018-12-29T04:35:41.960Z,5.43
2018-12-29T04:36:41.951Z,5.60
2018-12-29T04:37:41.962Z,5.64
2018-12-29T04:38:41.967Z,5.41
2018-12-29T04:39:41.918Z,5.30
2018-12-29T04:40:41.904Z,5.38
2018-12-29T04:41:41.892Z,5.55
2018-12-29T04:42:41.908Z,5.71
2018-12-29T04:43:41.867Z,5.63
2018-12-29T04:44:41.897Z,5.75
2018-12-29T04:45:41.850Z,5.98
2018-12-29T04:46:41.839Z,6.07
2018-12-29T04:47:41.852Z,5.57
2018-12-29T04:48:41.810Z,4.86
2018-12-29T04:49:41.805Z,4.40
2018-12-29T04:50:41.813Z,3.98
2018-12-29T04:51:41.792Z,4.06
2018-12-29T04:52:41.803Z,4.01
2018-12-29T04:53:41.762Z,3.72
2018-12-29T04:54:41.745Z,3.68
2018-12-29T04:55:41.736Z,3.78
2018-12-29T04:56:41.730Z,3.82
2018-12-29T04:57:41.771Z,3.80
2018-12-29T04:58:41.726Z,3.89
2018-12-29T04:59:41.704Z,4.15
2018-12-29T05:00:41.686Z,3.89
2018-12-29T05:01:41.667Z,3.72
2018-12-29T05:02:41.658Z,3.57
2018-12-29T05:03:41.670Z,3.27
2018-12-29T05:04:41.661Z,3.23
2018-12-29T05:05:41.621Z,3.20
2018-12-29T05:06:41.613Z,3.18
2018-12-29T05:07:41.607Z,3.18
2018-12-29T05:08:41.616Z,3.10
2018-12-29T05:09:41.579Z,3.03
2018-12-29T05:10:41.603Z,3.23
2018-12-29T05:11:41.567Z,3.16
2018-12-29T05:12:41.544Z,3.57
2018-12-29T05:13:41.557Z,4.07
2018-12-29T05:14:41.525Z,4.28
2018-12-29T05:15:41.516Z,4.94
2018-12-29T05:16:41.499Z,4.98
2018-12-29T05:17:41.539Z,4.86
2018-12-29T05:18:41.502Z,4.84
2018-12-29T05:19:41.477Z,4.70
2018-12-29T05:20:41.463Z,4.25
2018-12-29T05:21:41.446Z,4.36
2018-12-29T05:22:41.434Z,4.67
2018-12-29T05:23:41.482Z,4.75
2018-12-29T05:24:41.437Z,5.12
2018-12-29T05:25:41.407Z,5.04
2018-12-29T05:26:41.395Z,5.02
2018-12-29T05:27:41.379Z,4.92
2018-12-29T05:28:41.369Z,4.77
2018-12-29T05:29:41.383Z,4.70
2018-12-29T05:30:41.384Z,4.80
2018-12-29T05:31:41.336Z,4.92
2018-12-29T05:32:41.327Z,4.84
2018-12-29T05:33:41.317Z,5.12
2018-12-29T05:34:41.326Z,4.88
2018-12-29T05:35:41.296Z,4.44
2018-12-29T05:36:41.321Z,4.16
2018-12-29T05:37:41.270Z,4.19
2018-12-29T05:38:41.252Z,4.65
2018-12-29T05:39:41.271Z,5.04
2018-12-29T05:40:41.237Z,5.19
2018-12-29T05:41:41.226Z,5.07
2018-12-29T05:42:41.248Z,5.52
2018-12-29T05:43:41.208Z,5.56
2018-12-29T05:44:41.216Z,5.73
2018-12-29T05:45:41.182Z,5.59
2018-12-29T05:46:41.174Z,5.28
2018-12-29T05:47:41.160Z,5.50
2018-12-29T05:48:41.187Z,5.55
2018-12-29T05:49:41.168Z,5.70
2018-12-29T05:50:41.137Z,5.82
2018-12-29T05:51:41.114Z,5.60
2018-12-29T05:52:41.104Z,5.41
2018-12-29T05:53:41.100Z,5.32
2018-12-29T05:54:41.147Z,5.60
2018-12-29T05:55:41.073Z,5.70
2018-12-29T05:56:41.061Z,5.52
2018-12-29T05:57:41.051Z,5.60
2018-12-29T05:58:41.063Z,5.86
2018-12-29T05:59:41.064Z,5.48
2018-12-29T06:00:41.066Z,5.53
2018-12-29T06:01:41.003Z,5.67
2018-12-29T06:02:40.995Z,5.35
2018-12-29T06:03:40.979Z,5.19
2018-12-29T06:04:40.975Z,5.16
2018-12-29T06:05:41.069Z,5.25
2018-12-29T06:06:40.950Z,5.27
2018-12-29T06:07:40.965Z,5.45
2018-12-29T06:08:40.924Z,5.32
2018-12-29T06:09:40.922Z,5.50
2018-12-29T06:10:40.933Z,5.43
2018-12-29T06:11:40.902Z,5.30
2018-12-29T06:12:40.887Z,5.13
2018-12-29T06:13:40.893Z,5.20
2018-12-29T06:14:40.866Z,5.17
2018-12-29T06:15:40.875Z,5.09
2018-12-29T06:16:40.841Z,5.30
2018-12-29T06:17:40.905Z,5.40
2018-12-29T06:18:40.816Z,5.43
2018-12-29T06:19:40.839Z,5.48
2018-12-29T06:20:40.821Z,5.59
2018-12-29T06:21:40.786Z,5.68
2018-12-29T06:22:40.775Z,5.56
2018-12-29T06:23:40.769Z,5.73
2018-12-29T06:24:40.752Z,5.74
2018-12-29T06:25:40.760Z,5.68
2018-12-29T06:26:40.751Z,5.70
2018-12-29T06:27:40.714Z,5.88
2018-12-29T06:28:40.708Z,6.06
2018-12-29T06:29:40.711Z,6.09
2018-12-29T06:30:40.737Z,5.83
2018-12-29T06:31:40.682Z,5.77
2018-12-29T06:32:40.663Z,5.75
2018-12-29T06:33:40.677Z,5.85
2018-12-29T06:34:40.703Z,5.89
2018-12-29T06:35:40.653Z,5.92
2018-12-29T06:36:40.622Z,6.03
2018-12-29T06:37:40.610Z,6.16
2018-12-29T06:38:40.599Z,6.13
2018-12-29T06:39:40.625Z,6.06
2018-12-29T06:40:40.607Z,6.14
2018-12-29T06:41:40.613Z,6.14
2018-12-29T06:42:40.560Z,5.95
2018-12-29T06:43:40.547Z,5.88
2018-12-29T06:44:40.533Z,5.91
2018-12-29T06:45:40.580Z,5.82
2018-12-29T06:46:40.511Z,5.82
2018-12-29T06:47:40.503Z,5.70
2018-12-29T06:48:40.487Z,5.66
2018-12-29T06:49:40.479Z,5.78
2018-12-29T06:50:40.489Z,5.88
2018-12-29T06:51:40.452Z,5.89
2018-12-29T06:52:40.501Z,6.22
2018-12-29T06:53:40.437Z,6.06
2018-12-29T06:54:40.419Z,5.98
2018-12-29T06:55:40.431Z,5.77
2018-12-29T06:56:40.406Z,5.59
2018-12-29T06:57:40.388Z,5.49
2018-12-29T06:58:40.374Z,5.38
2018-12-29T06:59:40.364Z,4.96
2018-12-29T07:00:40.379Z,4.79
2018-12-29T07:01:40.409Z,4.72
2018-12-29T07:02:40.329Z,4.80
2018-12-29T07:03:40.321Z,4.84
2018-12-29T07:04:40.308Z,5.22
2018-12-29T07:05:40.300Z,5.53
2018-12-29T07:06:40.350Z,5.50
2018-12-29T07:07:40.269Z,5.96
2018-12-29T07:08:40.260Z,6.04
2018-12-29T07:09:40.296Z,6.07
2018-12-29T07:10:40.243Z,6.19
2018-12-29T07:11:40.254Z,6.14
2018-12-29T07:12:40.222Z,6.19
2018-12-29T07:13:40.241Z,6.19
2018-12-29T07:14:40.204Z,6.41
2018-12-29T07:15:40.189Z,6.41
2018-12-29T07:16:42.401Z,6.38
2018-12-29T07:17:40.161Z,6.50
2018-12-29T07:18:40.179Z,6.54
2018-12-29T07:19:40.138Z,6.25
2018-12-29T07:20:40.128Z,6.40
2018-12-29T07:21:40.139Z,6.22
2018-12-29T07:22:40.117Z,6.09
2018-12-29T07:23:40.098Z,6.10
2018-12-29T07:24:40.137Z,6.06
2018-12-29T07:25:40.071Z,6.01
2018-12-29T07:26:40.084Z,6.06
2018-12-29T07:27:40.046Z,6.18
2018-12-29T07:28:40.036Z,6.36
2018-12-29T07:29:40.032Z,6.43
2018-12-29T07:30:40.043Z,6.66
2018-12-29T07:31:40.028Z,6.76
2018-12-29T07:32:39.996Z,6.81
2018-12-29T07:33:39.984Z,6.83
2018-12-29T07:34:39.980Z,6.90
2018-12-29T07:35:39.959Z,6.76
2018-12-29T07:36:39.970Z,6.73
2018-12-29T07:37:39.996Z,6.73
2018-12-29T07:38:39.925Z,6.66
2018-12-29T07:39:39.917Z,6.63
2018-12-29T07:40:39.907Z,6.66
2018-12-29T07:41:39.916Z,6.79
2018-12-29T07:42:39.883Z,6.83
2018-12-29T07:43:39.870Z,6.81
2018-12-29T07:44:39.890Z,6.76
2018-12-29T07:45:39.871Z,6.68
2018-12-29T07:46:39.863Z,6.51
2018-12-29T07:47:39.821Z,6.36
2018-12-29T07:48:39.810Z,6.30
2018-12-29T07:49:39.810Z,6.43
2018-12-29T07:50:39.793Z,6.50
2018-12-29T07:51:39.810Z,6.48
2018-12-29T07:52:39.832Z,6.53
2018-12-29T07:53:39.754Z,6.53
2018-12-29T07:54:39.752Z,6.40
2018-12-29T07:55:39.737Z,6.48
2018-12-29T07:56:39.731Z,6.51
2018-12-29T07:57:39.745Z,6.53
2018-12-29T07:58:39.696Z,6.53
2018-12-29T07:59:39.688Z,6.56
2018-12-29T08:00:39.682Z,6.68
2018-12-29T08:01:39.714Z,6.62
2018-12-29T08:02:39.681Z,6.61
2018-12-29T08:03:39.645Z,6.46
2018-12-29T08:04:39.639Z,6.36
2018-12-29T08:05:39.622Z,6.40
2018-12-29T08:06:39.620Z,6.30
2018-12-29T08:07:39.624Z,6.43
2018-12-29T08:08:39.595Z,6.65
2018-12-29T08:09:39.578Z,6.66
2018-12-29T08:10:39.565Z,6.73
2018-12-29T08:11:39.552Z,6.69
2018-12-29T08:12:39.610Z,6.77
2018-12-29T08:13:39.531Z,6.77
2018-12-29T08:14:39.516Z,6.71
2018-12-29T08:15:39.509Z,6.65
2018-12-29T08:16:39.499Z,6.68
2018-12-29T08:17:39.507Z,6.76
2018-12-29T08:18:39.521Z,6.76
2018-12-29T08:19:39.460Z,6.83
2018-12-29T08:20:39.457Z,6.80
2018-12-29T08:21:39.443Z,6.79
2018-12-29T08:22:39.455Z,6.80
2018-12-29T08:23:39.416Z,6.77
2018-12-29T08:24:39.406Z,6.68
2018-12-29T08:25:39.433Z,6.69
2018-12-29T08:26:39.383Z,7.04
2018-12-29T08:27:40.680Z,7.22
2018-12-29T08:28:39.367Z,7.42
2018-12-29T08:29:39.348Z,7.47
2018-12-29T08:30:39.337Z,7.55
2018-12-29T08:31:39.323Z,7.52
2018-12-29T08:32:39.348Z,7.66
2018-12-29T08:33:39.302Z,7.74
2018-12-29T08:34:39.323Z,7.77
2018-12-29T08:35:39.276Z,7.69
2018-12-29T08:36:39.269Z,7.63
2018-12-29T08:37:39.340Z,7.45
2018-12-29T08:38:39.243Z,7.45
2018-12-29T08:39:39.241Z,7.49
2018-12-29T08:40:39.221Z,7.45
2018-12-29T08:41:39.252Z,7.47
2018-12-29T08:42:39.233Z,7.41
2018-12-29T08:43:39.193Z,7.44
2018-12-29T08:44:39.190Z,7.40
2018-12-29T08:45:39.176Z,7.29
2018-12-29T08:46:39.161Z,7.45
2018-12-29T08:47:39.223Z,7.55
2018-12-29T08:48:39.165Z,7.52
2018-12-29T08:49:39.131Z,7.60
2018-12-29T08:50:39.122Z,7.42
2018-12-29T08:51:39.106Z,7.45
2018-12-29T08:52:39.128Z,7.40
2018-12-29T08:53:39.102Z,7.52
2018-12-29T08:54:39.072Z,7.44
2018-12-29T08:55:39.058Z,7.47
2018-12-29T08:56:39.062Z,7.47
2018-12-29T08:57:39.043Z,7.41
2018-12-29T08:58:39.099Z,7.35
2018-12-29T08:59:39.014Z,7.37
2018-12-29T09:00:39.003Z,7.38
2018-12-29T09:01:39.003Z,7.49
2018-12-29T09:02:38.983Z,7.47
2018-12-29T09:03:38.991Z,7.72
2018-12-29T09:04:38.959Z,8.00
2018-12-29T09:05:38.948Z,7.94
2018-12-29T09:06:38.982Z,8.02
2018-12-29T09:07:38.922Z,8.04
2018-12-29T09:08:38.935Z,8.00
2018-12-29T09:09:38.905Z,7.89
2018-12-29T09:10:38.896Z,7.99
2018-12-29T09:11:38.884Z,8.02
2018-12-29T09:12:38.899Z,8.00
2018-12-29T09:13:38.891Z,8.03
2018-12-29T09:14:38.857Z,7.85
2018-12-29T09:15:39.314Z,7.79
2018-12-29T09:16:38.830Z,7.84
2018-12-29T09:17:38.821Z,7.78
2018-12-29T09:18:38.825Z,7.93
2018-12-29T09:19:38.800Z,8.11
2018-12-29T09:20:38.785Z,7.94
2018-12-29T09:21:38.774Z,7.89
2018-12-29T09:22:38.791Z,8.17
2018-12-29T09:23:38.771Z,7.93
2018-12-29T09:24:38.743Z,7.84
2018-12-29T09:25:38.723Z,7.96
2018-12-29T09:26:38.720Z,7.94
2018-12-29T09:27:38.712Z,7.93
2018-12-29T09:28:38.730Z,7.96
2018-12-29T09:29:38.707Z,8.20
2018-12-29T09:30:38.672Z,8.14
2018-12-29T09:31:38.663Z,8.18
2018-12-29T09:32:38.649Z,8.18
2018-12-29T09:33:38.664Z,8.17
2018-12-29T09:34:38.630Z,8.00
2018-12-29T09:35:38.658Z,7.93
2018-12-29T09:36:38.601Z,7.93
2018-12-29T09:37:38.595Z,7.62
2018-12-29T09:38:38.612Z,7.53
2018-12-29T09:39:38.575Z,7.67
2018-12-29T09:40:38.560Z,7.59
2018-12-29T09:41:38.582Z,7.60
2018-12-29T09:42:38.544Z,7.60
2018-12-29T09:43:38.550Z,7.59
2018-12-29T09:44:38.516Z,7.62
2018-12-29T09:45:38.504Z,7.63
2018-12-29T09:46:38.499Z,7.67
2018-12-29T09:47:38.516Z,7.50
2018-12-29T09:48:38.501Z,7.58
2018-12-29T09:49:38.488Z,7.50
2018-12-29T09:50:38.453Z,7.62
2018-12-29T09:51:38.438Z,7.67
2018-12-29T09:52:38.422Z,7.75
2018-12-29T09:53:38.423Z,7.81
2018-12-29T09:54:38.473Z,7.84
2018-12-29T09:55:38.400Z,7.89
2018-12-29T09:56:38.387Z,7.81
2018-12-29T09:57:38.368Z,7.85
2018-12-29T09:58:38.362Z,7.97
2018-12-29T09:59:38.372Z,8.15
2018-12-29T10:00:38.344Z,8.03
2018-12-29T10:01:38.326Z,8.26
2018-12-29T10:02:38.340Z,8.25
2018-12-29T10:03:38.305Z,8.30
2018-12-29T10:04:38.320Z,8.47
2018-12-29T10:05:38.293Z,8.33
2018-12-29T10:06:38.276Z,8.26
2018-12-29T10:07:38.258Z,8.17
2018-12-29T10:08:38.294Z,8.17
2018-12-29T10:09:38.263Z,7.97
2018-12-29T10:10:38.225Z,7.92
2018-12-29T10:11:38.218Z,7.99
2018-12-29T10:12:38.202Z,8.15
2018-12-29T10:13:38.188Z,8.03
2018-12-29T10:14:38.242Z,8.04
2018-12-29T10:15:38.168Z,7.99
2018-12-29T10:16:38.160Z,7.96
2018-12-29T10:17:38.164Z,7.87
2018-12-29T10:18:38.141Z,7.99
2018-12-29T10:19:38.151Z,8.11
2018-12-29T10:20:38.114Z,8.17
2018-12-29T10:21:38.114Z,8.14
2018-12-29T10:22:38.119Z,8.10
2018-12-29T10:23:38.086Z,8.11
2018-12-29T10:24:38.100Z,7.99
2018-12-29T10:25:38.065Z,8.14
2018-12-29T10:26:38.055Z,8.08
2018-12-29T10:27:38.039Z,8.17
2018-12-29T10:28:38.029Z,8.12
2018-12-29T10:29:38.076Z,8.03
2018-12-29T10:30:38.876Z,8.14
2018-12-29T10:31:37.995Z,8.12
2018-12-29T10:32:37.989Z,8.25
2018-12-29T10:33:37.971Z,8.17
2018-12-29T10:34:37.983Z,8.12
2018-12-29T10:35:37.950Z,7.99
2018-12-29T10:36:37.940Z,7.93
2018-12-29T10:37:37.933Z,7.99
2018-12-29T10:38:37.963Z,8.02
2018-12-29T10:39:37.928Z,8.12
2018-12-29T10:40:37.915Z,8.17
2018-12-29T10:41:37.893Z,8.12
2018-12-29T10:42:37.870Z,8.28
2018-12-29T10:43:37.872Z,8.11
2018-12-29T10:44:37.853Z,8.00
2018-12-29T10:45:37.865Z,8.04
2018-12-29T10:46:37.859Z,8.00
2018-12-29T10:47:37.817Z,7.99
2018-12-29T10:48:37.806Z,7.99
2018-12-29T10:49:37.799Z,7.92
2018-12-29T10:50:37.808Z,7.81
2018-12-29T10:51:37.778Z,7.93
2018-12-29T10:52:37.760Z,8.04
2018-12-29T10:53:37.771Z,8.17
2018-12-29T10:54:37.747Z,8.04
2018-12-29T10:55:37.751Z,7.94
2018-12-29T10:56:37.716Z,8.04
2018-12-29T10:57:37.705Z,7.99
2018-12-29T10:58:37.704Z,7.94
2018-12-29T10:59:37.690Z,7.89
2018-12-29T11:00:37.698Z,7.81
2018-12-29T11:01:37.660Z,7.59
2018-12-29T11:02:37.689Z,7.77
2018-12-29T11:03:37.637Z,7.67
2018-12-29T11:04:37.637Z,7.72
2018-12-29T11:05:37.640Z,7.56
2018-12-29T11:06:37.603Z,7.52
2018-12-29T11:07:37.591Z,7.56
2018-12-29T11:08:37.635Z,7.49
2018-12-29T11:09:37.574Z,7.53
2018-12-29T11:10:37.582Z,7.56
2018-12-29T11:11:37.557Z,7.62
2018-12-29T11:12:37.541Z,7.63
2018-12-29T11:13:37.530Z,7.96
2018-12-29T11:14:37.516Z,7.79
2018-12-29T11:15:37.577Z,7.75
2018-12-29T11:16:37.501Z,7.63
2018-12-29T11:17:42.177Z,7.59
2018-12-29T11:18:38.478Z,7.53
2018-12-29T11:19:37.459Z,7.53
2018-12-29T11:20:37.475Z,7.53
2018-12-29T11:21:37.443Z,7.60
2018-12-29T11:22:37.458Z,7.52
2018-12-29T11:23:37.426Z,7.53
2018-12-29T11:24:37.601Z,7.47
2018-12-29T11:25:37.436Z,7.45
2018-12-29T11:26:37.385Z,7.42
2018-12-29T11:27:37.376Z,7.45
2018-12-29T11:28:37.402Z,7.45
2018-12-29T11:29:37.355Z,7.60
2018-12-29T11:30:37.359Z,7.63
2018-12-29T11:31:37.387Z,7.63
2018-12-29T11:32:38.298Z,7.71
2018-12-29T11:33:37.325Z,7.49
2018-12-29T11:34:37.292Z,7.49
2018-12-29T11:35:37.288Z,7.52
2018-12-29T11:36:37.334Z,7.49
2018-12-29T11:37:37.259Z,7.56
2018-12-29T11:38:37.258Z,7.71
2018-12-29T11:39:37.239Z,7.67
2018-12-29T11:40:37.261Z,7.67
2018-12-29T11:41:37.244Z,7.58
2018-12-29T11:42:37.209Z,7.66
2018-12-29T11:43:37.196Z,7.74
2018-12-29T11:44:37.191Z,7.78
2018-12-29T11:45:37.215Z,7.60
2018-12-29T11:46:37.187Z,7.56
2018-12-29T11:47:37.148Z,7.71
2018-12-29T11:48:37.139Z,7.90
2018-12-29T11:49:37.133Z,7.90
2018-12-29T11:50:37.118Z,7.96
2018-12-29T11:51:37.135Z,8.07
2018-12-29T11:52:37.106Z,8.04
2018-12-29T11:53:37.078Z,8.00
2018-12-29T11:54:37.106Z,8.03
2018-12-29T11:55:37.058Z,8.02
2018-12-29T11:56:37.074Z,7.97
2018-12-29T11:57:37.046Z,7.97
2018-12-29T11:58:37.027Z,7.94
2018-12-29T11:59:37.011Z,7.99
2018-12-29T12:00:37.009Z,8.08
2018-12-29T12:01:37.025Z,8.02
2018-12-29T12:02:37.024Z,7.89
2018-12-29T12:03:36.977Z,7.77
2018-12-29T12:04:36.972Z,7.75
2018-12-29T12:05:36.955Z,7.78
2018-12-29T12:06:36.962Z,7.69
2018-12-29T12:07:36.934Z,7.66
2018-12-29T12:08:36.922Z,7.74
2018-12-29T12:09:36.917Z,7.67
2018-12-29T12:10:36.899Z,7.72
2018-12-29T12:11:36.906Z,7.66
2018-12-29T12:12:36.911Z,7.62
2018-12-29T12:13:36.881Z,7.66
2018-12-29T12:14:36.853Z,7.71
2018-12-29T12:15:36.841Z,7.67
2018-12-29T12:16:36.854Z,7.58
2018-12-29T12:17:36.825Z,7.53
2018-12-29T12:18:36.809Z,7.58
2018-12-29T12:19:36.811Z,7.56
2018-12-29T12:20:36.788Z,7.58
2018-12-29T12:21:36.802Z,7.69
2018-12-29T12:22:36.759Z,7.62
2018-12-29T12:23:36.766Z,7.84
2018-12-29T12:24:36.739Z,7.94
2018-12-29T12:25:36.727Z,7.87
2018-12-29T12:26:36.741Z,7.77
2018-12-29T12:27:36.744Z,7.75
2018-12-29T12:28:36.695Z,7.77
2018-12-29T12:29:36.688Z,7.77
2018-12-29T12:30:36.670Z,7.78
2018-12-29T12:31:36.699Z,7.78
2018-12-29T12:32:36.678Z,7.67
2018-12-29T12:33:36.641Z,7.67
2018-12-29T12:34:36.629Z,7.67
2018-12-29T12:35:36.614Z,7.67
2018-12-29T12:36:36.612Z,7.67
2018-12-29T12:37:36.621Z,7.66
2018-12-29T12:38:36.597Z,7.67
2018-12-29T12:39:36.578Z,7.72
2018-12-29T12:40:36.598Z,7.74
2018-12-29T12:41:36.563Z,7.67
2018-12-29T12:42:36.569Z,7.56
2018-12-29T12:43:36.531Z,7.60
2018-12-29T12:44:36.520Z,7.60
2018-12-29T12:45:36.506Z,7.69
2018-12-29T12:46:36.494Z,7.58
2018-12-29T12:47:36.507Z,7.74
2018-12-29T12:48:36.493Z,7.67
2018-12-29T12:49:36.463Z,7.67
2018-12-29T12:50:36.454Z,7.63
2018-12-29T12:51:36.445Z,7.78
2018-12-29T12:52:36.514Z,7.85
2018-12-29T12:53:36.423Z,7.90
2018-12-29T12:54:36.399Z,7.85
2018-12-29T12:55:36.401Z,7.90
2018-12-29T12:56:36.436Z,7.87
2018-12-29T12:57:36.398Z,8.04
2018-12-29T12:58:36.364Z,7.94
2018-12-29T12:59:36.348Z,7.99
2018-12-29T13:00:36.354Z,8.00
2018-12-29T13:01:36.334Z,7.94
2018-12-29T13:02:36.349Z,7.94
2018-12-29T13:03:36.318Z,7.92
2018-12-29T13:04:36.294Z,7.92
2018-12-29T13:05:36.289Z,7.93
2018-12-29T13:06:36.274Z,7.97
2018-12-29T13:07:36.287Z,7.97
2018-12-29T13:08:36.256Z,8.04
2018-12-29T13:09:36.281Z,8.00
2018-12-29T13:10:36.233Z,7.99
2018-12-29T13:11:36.224Z,8.00
2018-12-29T13:12:36.233Z,7.94
2018-12-29T13:13:36.201Z,7.89
2018-12-29T13:14:36.198Z,8.00
2018-12-29T13:15:36.178Z,8.02
2018-12-29T13:16:36.157Z,7.94
2018-12-29T13:17:36.174Z,7.84
2018-12-29T13:18:36.136Z,7.92